createdAt,value
2022-11-20T00:02:39.414Z,100981.16
2022-11-20T00:06:42.102Z,100975.81
2022-11-20T00:10:44.711Z,100985.31
2022-11-20T00:14:48.647Z,100987.81
2022-11-20T00:18:51.597Z,100982.97
2022-11-20T00:22:54.338Z,100983.94
2022-11-20T00:26:57.135Z,100984.63
2022-11-20T00:31:05.481Z,100983.94
2022-11-20T00:35:08.559Z,100985.91
2022-11-20T00:39:11.173Z,100979.75
2022-11-20T00:43:13.781Z,100973.44
2022-11-20T00:47:17.834Z,100971.63
2022-11-20T00:51:24.467Z,100958.63
2022-11-20T00:55:27.215Z,100957.47
2022-11-20T00:59:29.948Z,100962.09
2022-11-20T01:03:34.569Z,100960.59
2022-11-20T01:07:37.227Z,100964.81
2022-11-20T01:11:42.479Z,100958.13
2022-11-20T01:15:45.062Z,100970.78
2022-11-20T01:19:51.929Z,100951.19
2022-11-20T01:23:55.226Z,100942.84
2022-11-20T01:27:57.846Z,100929.13
2022-11-20T01:32:00.566Z,100926.16
2022-11-20T01:36:09.057Z,100924.34
2022-11-20T01:40:13.003Z,100937.28
2022-11-20T01:44:18.653Z,100936.72
2022-11-20T01:48:24.799Z,100933.66
2022-11-20T01:52:34.580Z,100930.91
2022-11-20T01:56:40.295Z,100926.31
2022-11-20T02:00:42.875Z,100932.22
2022-11-20T02:04:46.196Z,100931.81
2022-11-20T02:08:50.291Z,100919.66
2022-11-20T02:13:10.336Z,100917.16
2022-11-20T02:17:12.943Z,100912.84
2022-11-20T02:21:23.424Z,100915.09
2022-11-20T02:25:29.800Z,100904.03
2022-11-20T02:29:38.414Z,100891.91
2022-11-20T02:33:41.063Z,100902.38
2022-11-20T02:37:43.724Z,100896.75
2022-11-20T02:41:47.718Z,100887.09
2022-11-20T02:45:50.374Z,100897.22
2022-11-20T02:49:52.922Z,100896.22
2022-11-20T02:53:55.513Z,100896.66
2022-11-20T02:57:59.480Z,100892.63
2022-11-20T03:02:02.103Z,100889.25
2022-11-20T03:06:05.128Z,100888.28
2022-11-20T03:10:08.858Z,100882.69
2022-11-20T03:14:12.793Z,100878.72
2022-11-20T03:18:15.689Z,100875.94
2022-11-20T03:22:18.316Z,100874.81
2022-11-20T03:26:23.588Z,100879.84
2022-11-20T03:30:30.518Z,100873.22
2022-11-20T03:34:33.402Z,100869.88
2022-11-20T03:38:36.848Z,100874.53
2022-11-20T03:42:48.746Z,100881.78
2022-11-20T03:46:52.676Z,100895.53
2022-11-20T03:51:07.971Z,100882.00
2022-11-20T03:55:11.142Z,100870.81
2022-11-20T03:59:13.953Z,100881.59
2022-11-20T04:03:17.921Z,100876.97
2022-11-20T04:07:20.577Z,100864.50
2022-11-20T04:11:25.282Z,100859.75
2022-11-20T04:15:27.883Z,100864.91
2022-11-20T04:19:31.897Z,100856.94
2022-11-20T04:23:34.794Z,100852.44
2022-11-20T04:27:37.385Z,100847.81
2022-11-20T04:31:40.023Z,100846.97
2022-11-20T04:35:45.132Z,100840.66
2022-11-20T04:39:47.733Z,100834.00
2022-11-20T04:43:51.503Z,100837.75
2022-11-20T04:47:54.811Z,100837.25
2022-11-20T04:51:58.892Z,100835.16
2022-11-20T04:56:02.201Z,100840.78
2022-11-20T05:00:05.898Z,100840.22
2022-11-20T05:04:08.939Z,100836.88
2022-11-20T05:08:12.907Z,100840.13
2022-11-20T05:12:15.572Z,100826.00
2022-11-20T05:16:19.951Z,100832.31
2022-11-20T05:20:22.755Z,100823.78
2022-11-20T05:24:26.728Z,100832.88
2022-11-20T05:28:30.573Z,100813.72
2022-11-20T05:32:33.158Z,100822.44
2022-11-20T05:36:35.837Z,100823.41
2022-11-20T05:40:39.816Z,100828.31
2022-11-20T05:44:42.443Z,100828.31
2022-11-20T05:48:47.704Z,100821.66
2022-11-20T05:52:50.318Z,100815.19
2022-11-20T05:56:54.269Z,100808.94
2022-11-20T06:00:57.070Z,100814.78
2022-11-20T06:04:59.718Z,100819.25
2022-11-20T06:09:02.335Z,100830.19
2022-11-20T06:13:06.346Z,100838.16
2022-11-20T06:17:09.023Z,100831.75
2022-11-20T06:21:14.171Z,100838.16
2022-11-20T06:25:16.827Z,100835.78
2022-11-20T06:29:21.212Z,100829.19
2022-11-20T06:33:24.058Z,100836.06
2022-11-20T06:37:26.706Z,100836.75
2022-11-20T06:41:29.835Z,100829.75
2022-11-20T06:45:33.899Z,100823.88
2022-11-20T06:49:38.009Z,100837.31
2022-11-20T06:53:40.635Z,100829.19
2022-11-20T06:57:43.324Z,100833.66
2022-11-20T07:01:47.271Z,100824.72
2022-11-20T07:05:49.896Z,100828.06
2022-11-20T07:09:52.636Z,100829.59
2022-11-20T07:13:55.235Z,100827.06
2022-11-20T07:18:01.068Z,100829.03
2022-11-20T07:22:03.638Z,100841.63
2022-11-20T07:26:07.786Z,100833.53
2022-11-20T07:30:11.190Z,100829.88
2022-11-20T07:34:15.115Z,100833.94
2022-11-20T07:38:17.737Z,100828.47
2022-11-20T07:42:20.390Z,100822.03
2022-11-20T07:46:23.635Z,100817.28
2022-11-20T07:50:27.595Z,100819.00
2022-11-20T07:54:30.158Z,100809.22
2022-11-20T07:58:35.361Z,100812.53
2022-11-20T08:02:39.814Z,100815.03
2022-11-20T08:06:43.901Z,100805.19
2022-11-20T08:10:46.729Z,100810.91
2022-11-20T08:14:48.392Z,100807.94
2022-11-20T08:18:51.243Z,100811.69
2022-11-20T08:22:59.779Z,100807.16
2022-11-20T08:27:02.427Z,100803.47
2022-11-20T08:31:05.324Z,100794.44
2022-11-20T08:35:08.516Z,100798.41
2022-11-20T08:39:14.723Z,100794.72
2022-11-20T08:43:17.313Z,100796.97
2022-11-20T08:47:19.888Z,100802.75
2022-11-20T08:51:22.598Z,100801.84
2022-11-20T08:55:26.561Z,100799.94
2022-11-20T09:00:03.939Z,100806.69
2022-11-20T09:03:51.891Z,100810.63
2022-11-20T09:07:57.627Z,100789.25
2022-11-20T09:12:01.628Z,100790.13
2022-11-20T09:16:06.725Z,100785.66
2022-11-20T09:20:10.610Z,100779.38
2022-11-20T09:24:13.397Z,100773.78
2022-11-20T09:28:18.366Z,100768.50
2022-11-20T09:32:21.029Z,100758.56
2022-11-20T09:36:23.684Z,100761.78
2022-11-20T09:40:30.303Z,100755.28
2022-11-20T09:44:51.127Z,100760.34
2022-11-20T09:49:16.487Z,100763.19
2022-11-20T09:53:29.763Z,100759.53
2022-11-20T09:57:38.114Z,100755.72
2022-11-20T10:01:44.102Z,100756.56
2022-11-20T10:05:50.454Z,100757.25
2022-11-20T10:09:56.117Z,100751.25
2022-11-20T10:14:11.045Z,100735.88
2022-11-20T10:18:25.338Z,100742.88
2022-11-20T10:22:41.662Z,100731.84
2022-11-20T10:26:52.092Z,100735.84
2022-11-20T10:31:01.503Z,100726.78
2022-11-20T10:35:10.543Z,100727.28
2022-11-20T10:39:22.163Z,100717.06
2022-11-20T10:43:33.884Z,100719.19
2022-11-20T10:47:38.383Z,100707.44
2022-11-20T10:51:57.528Z,100707.06
2022-11-20T10:56:05.479Z,100709.31
2022-11-20T11:00:11.719Z,100707.75
2022-11-20T11:04:34.590Z,100702.81
2022-11-20T11:08:41.173Z,100687.19
2022-11-20T11:12:47.557Z,100686.59
2022-11-20T11:16:55.192Z,100677.81
2022-11-20T11:20:59.167Z,100682.94
2022-11-20T11:25:03.777Z,100679.91
2022-11-20T11:29:06.579Z,100676.50
2022-11-20T11:33:12.907Z,100665.53
2022-11-20T11:37:22.369Z,100671.47
2022-11-20T11:41:32.523Z,100669.34
2022-11-20T11:45:35.238Z,100658.00
2022-11-20T11:49:37.798Z,100659.56
2022-11-20T11:53:43.123Z,100638.66
2022-11-20T11:57:52.894Z,100636.16
2022-11-20T12:01:59.694Z,100624.13
2022-11-20T12:06:08.451Z,100620.13
2022-11-20T12:10:19.728Z,100614.25
2022-11-20T12:14:33.400Z,100622.03
2022-11-20T12:18:36.162Z,100604.38
2022-11-20T12:22:51.370Z,100601.81
2022-11-20T12:27:05.351Z,100582.97
2022-11-20T12:31:41.316Z,100592.53
2022-11-20T12:36:03.938Z,100587.44
2022-11-20T12:40:25.954Z,100588.50
2022-11-20T12:45:04.065Z,100579.28
2022-11-20T12:49:23.766Z,100573.75
2022-11-20T12:53:35.316Z,100564.28
2022-11-20T12:57:48.429Z,100549.84
2022-11-20T13:01:55.820Z,100542.44
2022-11-20T13:06:13.160Z,100535.25
2022-11-20T13:10:28.143Z,100529.53
2022-11-20T13:14:38.559Z,100515.88
2022-11-20T13:18:43.652Z,100493.56
2022-11-20T13:22:49.157Z,100485.06
2022-11-20T13:27:02.924Z,100486.72
2022-11-20T13:31:05.634Z,100473.50
2022-11-20T13:35:11.019Z,100467.50
2022-11-20T13:39:26.412Z,100454.66
2022-11-20T13:43:37.012Z,100460.22
2022-11-20T13:47:39.719Z,100468.69
2022-11-20T13:51:46.287Z,100462.09
2022-11-20T13:55:57.191Z,100456.09
2022-11-20T14:00:07.601Z,100460.22
2022-11-20T14:04:20.103Z,100452.19
2022-11-20T14:08:29.721Z,100454.47
2022-11-20T14:12:35.609Z,100452.59
2022-11-20T14:16:38.725Z,100448.47
2022-11-20T14:20:42.452Z,100435.22
2022-11-20T14:24:45.291Z,100421.16
2022-11-20T14:28:52.361Z,100426.09
2022-11-20T14:32:58.144Z,100412.22
2022-11-20T14:37:02.084Z,100395.69
2022-11-20T14:41:09.045Z,100402.94
2022-11-20T14:45:14.751Z,100380.59
2022-11-20T14:49:17.474Z,100382.47
2022-11-20T14:53:24.969Z,100373.56
2022-11-20T14:57:29.115Z,100375.00
2022-11-20T15:01:34.689Z,100356.59
2022-11-20T15:05:50.095Z,100353.47
2022-11-20T15:10:02.084Z,100343.78
2022-11-20T15:14:07.754Z,100338.63
2022-11-20T15:18:15.122Z,100340.03
2022-11-20T15:22:18.075Z,100323.50
2022-11-20T15:26:25.448Z,100311.75
2022-11-20T15:30:28.108Z,100288.78
2022-11-20T15:34:32.065Z,100273.69
2022-11-20T15:38:34.691Z,100282.19
2022-11-20T15:42:37.645Z,100287.72
2022-11-20T15:46:45.339Z,100284.00
2022-11-20T15:50:54.448Z,100293.25
2022-11-20T15:54:57.031Z,100294.91
2022-11-20T15:59:00.697Z,100293.69
2022-11-20T16:03:03.393Z,100291.25
2022-11-20T16:07:07.599Z,100281.13
2022-11-20T16:11:12.787Z,100292.06
2022-11-20T16:15:33.301Z,100283.59
2022-11-20T16:19:35.980Z,100278.44
2022-11-20T16:23:39.919Z,100261.69
2022-11-20T16:27:42.507Z,100245.97
2022-11-20T16:31:45.130Z,100238.53
2022-11-20T16:35:47.759Z,100219.31
2022-11-20T16:39:51.759Z,100214.34
2022-11-20T16:43:57.955Z,100214.16
2022-11-20T16:48:00.533Z,100215.59
2022-11-20T16:52:03.096Z,100216.66
2022-11-20T16:56:15.963Z,100205.91
2022-11-20T17:00:18.762Z,100207.75
2022-11-20T17:04:21.824Z,100202.16
2022-11-20T17:08:24.720Z,100197.22
2022-11-20T17:12:28.662Z,100194.31
2022-11-20T17:16:32.205Z,100201.13
2022-11-20T17:20:34.884Z,100203.81
2022-11-20T17:24:37.496Z,100207.53
2022-11-20T17:28:42.384Z,100192.84
2022-11-20T17:32:46.939Z,100199.06
2022-11-20T17:36:49.530Z,100201.13
2022-11-20T17:40:52.182Z,100200.88
2022-11-20T17:44:56.496Z,100193.47
2022-11-20T17:48:59.456Z,100176.94
2022-11-20T17:53:02.085Z,100167.44
2022-11-20T17:57:22.499Z,100160.19
2022-11-20T18:01:26.561Z,100151.88
2022-11-20T18:05:29.259Z,100141.94
2022-11-20T18:09:31.818Z,100138.44
2022-11-20T18:13:48.363Z,100127.69
2022-11-20T18:17:52.293Z,100130.16
2022-11-20T18:21:55.990Z,100122.50
2022-11-20T18:26:01.212Z,100118.38
2022-11-20T18:30:03.868Z,100111.97
2022-11-20T18:34:11.504Z,100103.50
2022-11-20T18:38:14.127Z,100099.34
2022-11-20T18:42:35.320Z,100099.94
2022-11-20T18:46:37.905Z,100091.06
2022-11-20T18:50:41.891Z,100089.63
2022-11-20T18:54:44.475Z,100080.97
2022-11-20T18:58:47.116Z,100076.22
2022-11-20T19:02:49.686Z,100068.75
2022-11-20T19:06:56.154Z,100061.53
2022-11-20T19:11:06.801Z,100067.91
2022-11-20T19:15:09.874Z,100060.06
2022-11-20T19:19:12.621Z,100062.94
2022-11-20T19:23:18.657Z,100055.31
2022-11-20T19:27:21.438Z,100051.78
2022-11-20T19:31:26.805Z,100049.53
2022-11-20T19:35:29.395Z,100045.81
2022-11-20T19:39:35.397Z,100036.72
2022-11-20T19:43:38.308Z,100039.41
2022-11-20T19:52:03.485Z,100029.06
2022-11-20T19:56:08.377Z,100024.53
2022-11-20T20:00:16.802Z,100026.59
2022-11-20T20:04:22.713Z,100025.75
2022-11-20T20:08:25.292Z,100024.91
2022-11-20T20:12:29.239Z,100024.53
2022-11-20T20:16:32.185Z,100024.91
2022-11-20T20:20:34.831Z,100022.03
2022-11-20T20:24:37.492Z,100020.22
2022-11-20T20:28:41.773Z,100027.81
2022-11-20T20:32:44.394Z,100026.38
2022-11-20T20:36:46.970Z,100026.56
2022-11-20T20:40:50.374Z,100022.88
2022-11-20T20:45:08.273Z,100016.66
2022-11-20T20:49:11.144Z,100025.72
2022-11-20T20:53:13.764Z,100025.13
2022-11-20T20:57:16.373Z,100028.41
2022-11-20T21:01:22.602Z,100025.94
2022-11-20T21:05:25.319Z,100035.44
2022-11-20T21:09:27.941Z,100027.81
2022-11-20T21:13:31.007Z,100023.91
2022-11-20T21:17:34.939Z,100022.47
2022-11-20T21:21:55.295Z,100022.25
2022-11-20T21:25:58.160Z,100028.88
2022-11-20T21:30:00.762Z,100040.22
2022-11-20T21:34:04.746Z,100037.16
2022-11-20T21:38:07.412Z,100038.38
2022-11-20T21:42:10.059Z,100043.13
2022-11-20T21:46:14.669Z,100055.31
2022-11-20T21:50:19.060Z,100049.94
2022-11-20T21:54:21.935Z,100062.53
2022-11-20T21:58:24.908Z,100061.34
2022-11-20T22:02:27.510Z,100065.25
2022-11-20T22:06:35.250Z,100066.91
2022-11-20T22:10:37.821Z,100073.72
2022-11-20T22:14:40.408Z,100079.66
2022-11-20T22:18:44.849Z,100082.13
2022-11-20T22:22:49.106Z,100091.66
2022-11-20T22:26:51.961Z,100095.34
2022-11-20T22:30:58.895Z,100102.38
2022-11-20T22:35:02.262Z,100093.09
2022-11-20T22:39:06.973Z,100094.75
2022-11-20T22:43:09.569Z,100100.09
2022-11-20T22:47:12.140Z,100107.53
2022-11-20T22:51:16.699Z,100106.06
2022-11-20T22:55:20.602Z,100120.69
2022-11-20T22:59:23.201Z,100112.88
2022-11-20T23:03:25.902Z,100125.84
2022-11-20T23:07:28.663Z,100127.34
2022-11-20T23:11:33.759Z,100128.78
2022-11-20T23:15:36.480Z,100129.19
2022-11-20T23:19:39.046Z,100129.59
2022-11-20T23:23:42.066Z,100124.25
2022-11-20T23:27:45.961Z,100110.63
2022-11-20T23:31:48.552Z,100117.66
2022-11-20T23:35:51.560Z,100116.44
2022-11-20T23:39:54.214Z,100124.88
2022-11-20T23:43:58.152Z,100128.59
2022-11-20T23:48:00.726Z,100138.28
2022-11-20T23:52:03.415Z,100148.84
2022-11-20T23:56:06.849Z,100150.69
